WZZ7032 LZIB-ENGM
Flight info
| Callsign | WZZ7032 |
|---|---|
| Flight time | N/A |
| Altitude | 38000 |
| Route | BERVA P10 MAVOR DCT UPLAV DCT DESEN DCT GOSOT DCT SABAK DCT LUNIP |
| Aircraft | A20N/M-SDE2E3FGHIRWXY/LB1 |
Departure
| Time | 2026-04-29 17:17 |
|---|---|
| Airport | M. R. Štefánik Airport (LZIB) |
Arrival
| Time | N/A |
|---|---|
| Airport | Oslo-Gardermoen International Airport (ENGM) |
| Time | Latitude | Longitude | Altitude | Speed | Heading |
|---|---|---|---|---|---|
| 2026-04-29 16:48 | 48.16892 | 17.20058 | 436 ft | 0 kts | 314° |
| 2026-04-29 17:07 | 48.16885 | 17.20067 | 436 ft | 2 kts | 324° |
| 2026-04-29 17:08 | 48.16872 | 17.20078 | 435 ft | 2 kts | 339° |
| 2026-04-29 17:08 | 48.16857 | 17.20084 | 435 ft | 2 kts | 354° |
| 2026-04-29 17:08 | 48.16843 | 17.20084 | 435 ft | 2 kts | 8° |
| 2026-04-29 17:08 | 48.16828 | 17.20078 | 435 ft | 2 kts | 23° |
| 2026-04-29 17:09 | 48.16815 | 17.20067 | 435 ft | 2 kts | 38° |
| 2026-04-29 17:09 | 48.16808 | 17.20058 | 435 ft | 0 kts | 46° |
| 2026-04-29 17:11 | 48.16808 | 17.20059 | 434 ft | 0 kts | 46° |
| 2026-04-29 17:12 | 48.16815 | 17.20068 | 435 ft | 2 kts | 43° |
| 2026-04-29 17:12 | 48.16839 | 17.20102 | 435 ft | 5 kts | 44° |
| 2026-04-29 17:12 | 48.16844 | 17.20157 | 435 ft | 6 kts | 116° |
| 2026-04-29 17:12 | 48.16824 | 17.20192 | 434 ft | 7 kts | 132° |
| 2026-04-29 17:13 | 48.16763 | 17.20287 | 433 ft | 11 kts | 135° |
| 2026-04-29 17:13 | 48.16707 | 17.20353 | 432 ft | 9 kts | 178° |
| 2026-04-29 17:13 | 48.16649 | 17.20299 | 432 ft | 10 kts | 222° |
| 2026-04-29 17:13 | 48.16592 | 17.20224 | 432 ft | 11 kts | 219° |
| 2026-04-29 17:14 | 48.16526 | 17.20141 | 432 ft | 13 kts | 220° |
| 2026-04-29 17:14 | 48.16450 | 17.20043 | 432 ft | 14 kts | 220° |
| 2026-04-29 17:14 | 48.16376 | 17.19947 | 433 ft | 14 kts | 220° |
| 2026-04-29 17:14 | 48.16306 | 17.19855 | 435 ft | 12 kts | 221° |
| 2026-04-29 17:15 | 48.16244 | 17.19792 | 435 ft | 11 kts | 195° |
| 2026-04-29 17:15 | 48.16174 | 17.19814 | 435 ft | 10 kts | 144° |
| 2026-04-29 17:15 | 48.16130 | 17.19894 | 434 ft | 11 kts | 135° |
| 2026-04-29 17:15 | 48.16111 | 17.19976 | 433 ft | 8 kts | 72° |
| 2026-04-29 17:16 | 48.16132 | 17.20017 | 432 ft | 0 kts | 41° |
| 2026-04-29 17:16 | 48.16132 | 17.20018 | 432 ft | 0 kts | 42° |
| 2026-04-29 17:16 | 48.16135 | 17.20021 | 432 ft | 4 kts | 42° |
| 2026-04-29 17:17 | 48.16332 | 17.20302 | 432 ft | 76 kts | 43° |
| 2026-04-29 17:17 | 48.16866 | 17.21073 | 429 ft | 137 kts | 43° |
| 2026-04-29 17:17 | 48.17625 | 17.22205 | 714 ft | 161 kts | 41° |
| 2026-04-29 17:17 | 48.18393 | 17.23335 | 1336 ft | 163 kts | 39° |
| 2026-04-29 17:18 | 48.19195 | 17.24465 | 1992 ft | 165 kts | 38° |
| 2026-04-29 17:18 | 48.20038 | 17.25649 | 2541 ft | 174 kts | 39° |
| 2026-04-29 17:18 | 48.20965 | 17.26960 | 2963 ft | 190 kts | 39° |
| 2026-04-29 17:18 | 48.21973 | 17.28385 | 3295 ft | 213 kts | 38° |
| 2026-04-29 17:19 | 48.23151 | 17.29867 | 3763 ft | 229 kts | 33° |
| 2026-04-29 17:19 | 48.24522 | 17.31255 | 4243 ft | 246 kts | 28° |
| 2026-04-29 17:19 | 48.26015 | 17.32645 | 4796 ft | 261 kts | 31° |
| 2026-04-29 17:19 | 48.27536 | 17.34197 | 5581 ft | 266 kts | 31° |
| 2026-04-29 17:20 | 48.29055 | 17.35784 | 6371 ft | 271 kts | 31° |
| 2026-04-29 17:20 | 48.30640 | 17.37320 | 7140 ft | 275 kts | 28° |
| 2026-04-29 17:20 | 48.32319 | 17.38736 | 7903 ft | 278 kts | 19° |
| 2026-04-29 17:20 | 48.34196 | 17.39516 | 8672 ft | 279 kts | 7° |
| 2026-04-29 17:21 | 48.36111 | 17.39997 | 9409 ft | 284 kts | 6° |
| 2026-04-29 17:21 | 48.38085 | 17.40476 | 10137 ft | 289 kts | 7° |
| 2026-04-29 17:21 | 48.40098 | 17.41001 | 10687 ft | 300 kts | 8° |
| 2026-04-29 17:21 | 48.42247 | 17.41597 | 11038 ft | 319 kts | 8° |
| 2026-04-29 17:22 | 48.44501 | 17.42249 | 11360 ft | 336 kts | 9° |
| 2026-04-29 17:22 | 48.46844 | 17.42944 | 11726 ft | 351 kts | 9° |
| 2026-04-29 17:22 | 48.49247 | 17.43668 | 12358 ft | 357 kts | 9° |
| 2026-04-29 17:22 | 48.51664 | 17.44406 | 13056 ft | 360 kts | 9° |
| 2026-04-29 17:23 | 48.54136 | 17.45162 | 13721 ft | 364 kts | 9° |
| 2026-04-29 17:23 | 48.56617 | 17.45922 | 14369 ft | 367 kts | 8° |
| 2026-04-29 17:23 | 48.59103 | 17.46682 | 15007 ft | 371 kts | 8° |
| 2026-04-29 17:23 | 48.61628 | 17.47455 | 15639 ft | 374 kts | 8° |
| 2026-04-29 17:24 | 48.64188 | 17.48238 | 16090 ft | 377 kts | 7° |
| 2026-04-29 17:24 | 48.66802 | 17.49032 | 16433 ft | 381 kts | 6° |
| 2026-04-29 17:24 | 48.69397 | 17.49399 | 17065 ft | 379 kts | 357° |
| 2026-04-29 17:24 | 48.72055 | 17.49407 | 17755 ft | 378 kts | 355° |
| 2026-04-29 17:25 | 48.74726 | 17.49362 | 18357 ft | 380 kts | 354° |
| 2026-04-29 17:25 | 48.77343 | 17.49335 | 18930 ft | 383 kts | 355° |
| 2026-04-29 17:25 | 48.80024 | 17.49332 | 19507 ft | 385 kts | 355° |
| 2026-04-29 17:25 | 48.82711 | 17.49347 | 20075 ft | 387 kts | 355° |
| 2026-04-29 17:26 | 48.85406 | 17.49373 | 20640 ft | 388 kts | 355° |
| 2026-04-29 17:26 | 48.88097 | 17.49406 | 21200 ft | 390 kts | 355° |
| 2026-04-29 17:26 | 48.90805 | 17.49444 | 21754 ft | 391 kts | 354° |
| 2026-04-29 17:26 | 48.93550 | 17.49484 | 22304 ft | 393 kts | 354° |
| 2026-04-29 17:27 | 48.96285 | 17.49526 | 22840 ft | 394 kts | 354° |
| 2026-04-29 17:27 | 48.98999 | 17.49566 | 23363 ft | 396 kts | 354° |
| 2026-04-29 17:27 | 49.01760 | 17.49608 | 23877 ft | 397 kts | 355° |
| 2026-04-29 17:27 | 49.04536 | 17.49650 | 24356 ft | 399 kts | 355° |
| 2026-04-29 17:28 | 49.07356 | 17.49692 | 24679 ft | 405 kts | 355° |
| 2026-04-29 17:28 | 49.10183 | 17.49735 | 25057 ft | 408 kts | 355° |
| 2026-04-29 17:28 | 49.13065 | 17.49781 | 25488 ft | 410 kts | 355° |
| 2026-04-29 17:28 | 49.15924 | 17.49829 | 25915 ft | 412 kts | 355° |
| 2026-04-29 17:29 | 49.18772 | 17.49877 | 26331 ft | 414 kts | 355° |
| 2026-04-29 17:29 | 49.21662 | 17.49926 | 26743 ft | 415 kts | 355° |
| 2026-04-29 17:29 | 49.24565 | 17.49975 | 27148 ft | 417 kts | 355° |
| 2026-04-29 17:29 | 49.26529 | 17.50008 | 27413 ft | 418 kts | 355° |
| 2026-04-29 17:30 | 49.30422 | 17.50072 | 27922 ft | 419 kts | 355° |
| 2026-04-29 17:30 | 49.33359 | 17.50120 | 28274 ft | 421 kts | 355° |
| 2026-04-29 17:30 | 49.36283 | 17.50168 | 28598 ft | 422 kts | 355° |
| 2026-04-29 17:30 | 49.39185 | 17.50216 | 28908 ft | 423 kts | 355° |
| 2026-04-29 17:31 | 49.42150 | 17.50265 | 29209 ft | 424 kts | 355° |
| 2026-04-29 17:31 | 49.45099 | 17.50314 | 29480 ft | 425 kts | 355° |
| 2026-04-29 17:31 | 49.48037 | 17.50363 | 29748 ft | 426 kts | 355° |
| 2026-04-29 17:31 | 49.50970 | 17.50412 | 30107 ft | 424 kts | 355° |
| 2026-04-29 17:32 | 49.53909 | 17.50463 | 30475 ft | 421 kts | 355° |
| 2026-04-29 17:32 | 49.56847 | 17.50512 | 30825 ft | 419 kts | 355° |
| 2026-04-29 17:32 | 49.59725 | 17.50561 | 31146 ft | 418 kts | 355° |
| 2026-04-29 17:32 | 49.62630 | 17.50610 | 31448 ft | 416 kts | 355° |
| 2026-04-29 17:33 | 49.65522 | 17.50659 | 31735 ft | 415 kts | 355° |
| 2026-04-29 17:33 | 49.68407 | 17.50707 | 32031 ft | 414 kts | 355° |
| 2026-04-29 17:33 | 49.71269 | 17.50755 | 32329 ft | 412 kts | 355° |
| 2026-04-29 17:33 | 49.74110 | 17.50802 | 32599 ft | 411 kts | 355° |
| 2026-04-29 17:34 | 49.76994 | 17.50850 | 32869 ft | 409 kts | 355° |
| 2026-04-29 17:34 | 49.79816 | 17.50898 | 33139 ft | 408 kts | 355° |
| 2026-04-29 17:34 | 49.82725 | 17.50947 | 33401 ft | 407 kts | 355° |
| 2026-04-29 17:34 | 49.85571 | 17.50995 | 33653 ft | 405 kts | 355° |
| 2026-04-29 17:35 | 49.90270 | 17.51074 | 34063 ft | 403 kts | 355° |
| 2026-04-29 17:35 | 49.94000 | 17.51136 | 34365 ft | 402 kts | 355° |
| 2026-04-29 17:35 | 49.96840 | 17.51185 | 34576 ft | 401 kts | 355° |
| 2026-04-29 17:36 | 49.99617 | 17.51233 | 34753 ft | 401 kts | 355° |
| 2026-04-29 17:36 | 50.02445 | 17.51281 | 34915 ft | 402 kts | 355° |
| 2026-04-29 17:36 | 50.05219 | 17.51326 | 35094 ft | 401 kts | 355° |
| 2026-04-29 17:36 | 50.08025 | 17.51374 | 35288 ft | 400 kts | 355° |
| 2026-04-29 17:37 | 50.10802 | 17.51421 | 35469 ft | 400 kts | 355° |
| 2026-04-29 17:37 | 50.13586 | 17.51468 | 35651 ft | 400 kts | 355° |
| 2026-04-29 17:37 | 50.16374 | 17.51516 | 35830 ft | 399 kts | 355° |
| 2026-04-29 17:37 | 50.19121 | 17.51535 | 35999 ft | 398 kts | 354° |
| 2026-04-29 17:38 | 50.21887 | 17.51360 | 36166 ft | 397 kts | 351° |
| 2026-04-29 17:38 | 50.24630 | 17.50964 | 36326 ft | 395 kts | 349° |
| 2026-04-29 17:38 | 50.27328 | 17.50357 | 36473 ft | 394 kts | 346° |
| 2026-04-29 17:38 | 50.30049 | 17.49524 | 36595 ft | 393 kts | 344° |
| 2026-04-29 17:39 | 50.32686 | 17.48495 | 36708 ft | 393 kts | 341° |
| 2026-04-29 17:39 | 50.35291 | 17.47262 | 36811 ft | 392 kts | 339° |
| 2026-04-29 17:39 | 50.37895 | 17.45916 | 36915 ft | 393 kts | 339° |
| 2026-04-29 17:40 | 50.43095 | 17.43177 | 37099 ft | 394 kts | 339° |
| 2026-04-29 17:40 | 50.48327 | 17.40406 | 37279 ft | 395 kts | 339° |
| 2026-04-29 17:41 | 50.53591 | 17.37610 | 37438 ft | 396 kts | 339° |
| 2026-04-29 17:41 | 50.58823 | 17.34823 | 37608 ft | 396 kts | 339° |
| 2026-04-29 17:42 | 50.64107 | 17.32003 | 37738 ft | 398 kts | 339° |
| 2026-04-29 17:42 | 50.69375 | 17.29184 | 37874 ft | 398 kts | 339° |
| 2026-04-29 17:43 | 50.74609 | 17.26375 | 37977 ft | 399 kts | 339° |
| 2026-04-29 17:43 | 50.79905 | 17.23527 | 38092 ft | 399 kts | 339° |
| 2026-04-29 17:44 | 50.85189 | 17.20678 | 38188 ft | 400 kts | 339° |
| 2026-04-29 17:44 | 50.90489 | 17.17814 | 38255 ft | 401 kts | 339° |
| 2026-04-29 17:45 | 50.95837 | 17.14918 | 38155 ft | 407 kts | 338° |
| 2026-04-29 17:45 | 51.01280 | 17.11960 | 38052 ft | 414 kts | 338° |
| 2026-04-29 17:46 | 51.06806 | 17.08948 | 37987 ft | 420 kts | 339° |
| 2026-04-29 17:46 | 51.12373 | 17.05910 | 38031 ft | 423 kts | 339° |
| 2026-04-29 17:46 | 51.15141 | 17.04397 | 38157 ft | 422 kts | 339° |
| 2026-04-29 17:47 | 51.17954 | 17.02858 | 38286 ft | 421 kts | 338° |
| 2026-04-29 17:47 | 51.20748 | 17.01328 | 38412 ft | 420 kts | 338° |
| 2026-04-29 17:47 | 51.23601 | 16.99763 | 38430 ft | 421 kts | 338° |
| 2026-04-29 17:48 | 51.29171 | 16.96700 | 38435 ft | 424 kts | 338° |
| 2026-04-29 17:48 | 51.34756 | 16.93621 | 38435 ft | 423 kts | 338° |
| 2026-04-29 17:49 | 51.40355 | 16.90527 | 38435 ft | 421 kts | 338° |
| 2026-04-29 17:49 | 51.45862 | 16.87476 | 38435 ft | 418 kts | 338° |
| 2026-04-29 17:50 | 51.51369 | 16.84415 | 38435 ft | 416 kts | 337° |
| 2026-04-29 17:50 | 51.56865 | 16.81353 | 38435 ft | 413 kts | 337° |
| 2026-04-29 17:51 | 51.62279 | 16.78328 | 38434 ft | 411 kts | 337° |
| 2026-04-29 17:51 | 51.67707 | 16.75286 | 38434 ft | 411 kts | 337° |
| 2026-04-29 17:52 | 51.73122 | 16.72244 | 38435 ft | 411 kts | 337° |
| 2026-04-29 17:52 | 51.78561 | 16.69182 | 38439 ft | 411 kts | 337° |
| 2026-04-29 17:53 | 51.84018 | 16.66102 | 38446 ft | 411 kts | 337° |
| 2026-04-29 17:53 | 51.89420 | 16.63046 | 38453 ft | 411 kts | 337° |
| 2026-04-29 17:54 | 51.94835 | 16.59974 | 38457 ft | 411 kts | 337° |
| 2026-04-29 17:54 | 52.00248 | 16.56895 | 38459 ft | 411 kts | 337° |
| 2026-04-29 17:55 | 52.05667 | 16.53806 | 38460 ft | 411 kts | 337° |
| 2026-04-29 17:55 | 52.11133 | 16.50682 | 38462 ft | 411 kts | 337° |
| 2026-04-29 17:56 | 52.16538 | 16.47585 | 38461 ft | 411 kts | 337° |
| 2026-04-29 17:56 | 52.21978 | 16.44460 | 38460 ft | 411 kts | 337° |
| 2026-04-29 17:57 | 52.27429 | 16.41320 | 38460 ft | 411 kts | 337° |
| 2026-04-29 17:57 | 52.32840 | 16.38195 | 38460 ft | 411 kts | 337° |
| 2026-04-29 17:58 | 52.38256 | 16.35058 | 38460 ft | 411 kts | 337° |
| 2026-04-29 17:58 | 52.43679 | 16.31909 | 38461 ft | 411 kts | 336° |
| 2026-04-29 17:59 | 52.49065 | 16.28775 | 38460 ft | 411 kts | 336° |
| 2026-04-29 17:59 | 52.54526 | 16.25588 | 38460 ft | 411 kts | 336° |
| 2026-04-29 18:00 | 52.59937 | 16.22422 | 38460 ft | 411 kts | 336° |
| 2026-04-29 18:00 | 52.65351 | 16.19245 | 38460 ft | 411 kts | 336° |
| 2026-04-29 18:01 | 52.70802 | 16.16039 | 38460 ft | 411 kts | 336° |
| 2026-04-29 18:01 | 52.76220 | 16.12843 | 38460 ft | 411 kts | 336° |
| 2026-04-29 18:02 | 52.81622 | 16.09649 | 38460 ft | 411 kts | 336° |
| 2026-04-29 18:02 | 52.86985 | 16.06469 | 38460 ft | 411 kts | 336° |
| 2026-04-29 18:03 | 52.92401 | 16.03249 | 38460 ft | 411 kts | 336° |
| 2026-04-29 18:03 | 52.97821 | 16.00019 | 38457 ft | 411 kts | 336° |
| 2026-04-29 18:04 | 53.03266 | 15.96767 | 38453 ft | 415 kts | 336° |
| 2026-04-29 18:04 | 53.08772 | 15.93464 | 38453 ft | 419 kts | 336° |
| 2026-04-29 18:05 | 53.14284 | 15.90146 | 38457 ft | 424 kts | 336° |
| 2026-04-29 18:05 | 53.19923 | 15.86748 | 38461 ft | 429 kts | 336° |
| 2026-04-29 18:06 | 53.25565 | 15.83341 | 38461 ft | 433 kts | 336° |
| 2026-04-29 18:06 | 53.31299 | 15.79866 | 38461 ft | 436 kts | 336° |
| 2026-04-29 18:07 | 53.37041 | 15.76377 | 38461 ft | 439 kts | 336° |
| 2026-04-29 18:07 | 53.42815 | 15.72860 | 38461 ft | 440 kts | 336° |
| 2026-04-29 18:08 | 53.48550 | 15.69355 | 38461 ft | 440 kts | 336° |
| 2026-04-29 18:08 | 53.54304 | 15.65828 | 38460 ft | 440 kts | 336° |
| 2026-04-29 18:09 | 53.60102 | 15.62263 | 38460 ft | 440 kts | 336° |
| 2026-04-29 18:09 | 53.65863 | 15.58711 | 38460 ft | 440 kts | 336° |
| 2026-04-29 18:10 | 53.71627 | 15.55146 | 38460 ft | 440 kts | 336° |
| 2026-04-29 18:10 | 53.77415 | 15.51557 | 38460 ft | 440 kts | 336° |
| 2026-04-29 18:11 | 53.83231 | 15.47939 | 38460 ft | 440 kts | 336° |
| 2026-04-29 18:11 | 53.89233 | 15.44194 | 38460 ft | 440 kts | 336° |
| 2026-04-29 18:12 | 53.95065 | 15.40544 | 38460 ft | 440 kts | 336° |
| 2026-04-29 18:12 | 54.00790 | 15.36951 | 38460 ft | 440 kts | 336° |
| 2026-04-29 18:13 | 54.06549 | 15.33324 | 38461 ft | 439 kts | 335° |
| 2026-04-29 18:13 | 54.12288 | 15.29701 | 38461 ft | 439 kts | 335° |
| 2026-04-29 18:14 | 54.18049 | 15.26053 | 38460 ft | 439 kts | 335° |
| 2026-04-29 18:14 | 54.23825 | 15.22385 | 38460 ft | 439 kts | 335° |
| 2026-04-29 18:15 | 54.29576 | 15.18721 | 38460 ft | 439 kts | 335° |
| 2026-04-29 18:15 | 54.35332 | 15.15042 | 38460 ft | 439 kts | 335° |
| 2026-04-29 18:16 | 54.41050 | 15.11359 | 38460 ft | 439 kts | 335° |
| 2026-04-29 18:16 | 54.46653 | 15.07490 | 38461 ft | 437 kts | 334° |
| 2026-04-29 18:17 | 54.52232 | 15.03585 | 38461 ft | 436 kts | 334° |
| 2026-04-29 18:17 | 54.57784 | 14.99698 | 38461 ft | 433 kts | 334° |
| 2026-04-29 18:18 | 54.63333 | 14.95807 | 38461 ft | 431 kts | 334° |
| 2026-04-29 18:18 | 54.68865 | 14.91921 | 38461 ft | 430 kts | 333° |
| 2026-04-29 18:19 | 54.74337 | 14.88064 | 38461 ft | 428 kts | 333° |
| 2026-04-29 18:19 | 54.79836 | 14.84177 | 38460 ft | 426 kts | 333° |
| 2026-04-29 18:20 | 54.85274 | 14.80321 | 38460 ft | 426 kts | 333° |
| 2026-04-29 18:20 | 54.90740 | 14.76437 | 38458 ft | 428 kts | 333° |
| 2026-04-29 18:21 | 54.96204 | 14.72545 | 38456 ft | 431 kts | 333° |
| 2026-04-29 18:21 | 55.01748 | 14.68580 | 38456 ft | 435 kts | 332° |
| 2026-04-29 18:22 | 55.07353 | 14.64556 | 38459 ft | 439 kts | 332° |
| 2026-04-29 18:22 | 55.12986 | 14.60501 | 38461 ft | 443 kts | 332° |
| 2026-04-29 18:23 | 55.18693 | 14.56382 | 38461 ft | 446 kts | 332° |
| 2026-04-29 18:23 | 55.24433 | 14.52228 | 38461 ft | 447 kts | 333° |
| 2026-04-29 18:24 | 55.30114 | 14.48106 | 38460 ft | 447 kts | 332° |
| 2026-04-29 18:24 | 55.35852 | 14.43928 | 38460 ft | 447 kts | 333° |
| 2026-04-29 18:25 | 55.41636 | 14.39702 | 38459 ft | 447 kts | 333° |
| 2026-04-29 18:25 | 55.47398 | 14.35479 | 38449 ft | 447 kts | 332° |
| 2026-04-29 18:26 | 55.53120 | 14.31272 | 38434 ft | 446 kts | 332° |
| 2026-04-29 18:26 | 55.58958 | 14.26966 | 38420 ft | 447 kts | 332° |
| 2026-04-29 18:27 | 55.64814 | 14.22632 | 38413 ft | 447 kts | 332° |
| 2026-04-29 18:27 | 55.70582 | 14.18350 | 38410 ft | 447 kts | 332° |
| 2026-04-29 18:28 | 55.76332 | 14.14067 | 38408 ft | 447 kts | 332° |
| 2026-04-29 18:28 | 55.82094 | 14.09762 | 38408 ft | 447 kts | 332° |
| 2026-04-29 18:29 | 55.87804 | 14.05482 | 38408 ft | 447 kts | 332° |
| 2026-04-29 18:29 | 55.93548 | 14.01162 | 38408 ft | 447 kts | 332° |
| 2026-04-29 18:30 | 55.99296 | 13.96825 | 38408 ft | 447 kts | 332° |
| 2026-04-29 18:30 | 56.05057 | 13.92465 | 38408 ft | 447 kts | 332° |
| 2026-04-29 18:31 | 56.10800 | 13.88104 | 38408 ft | 447 kts | 332° |
| 2026-04-29 18:31 | 56.16535 | 13.83735 | 38409 ft | 447 kts | 332° |
| 2026-04-29 18:32 | 56.22287 | 13.79339 | 38413 ft | 447 kts | 332° |
| 2026-04-29 18:32 | 56.30882 | 13.72743 | 38420 ft | 447 kts | 332° |
| 2026-04-29 18:33 | 56.36651 | 13.68297 | 38425 ft | 447 kts | 332° |
| 2026-04-29 18:33 | 56.42357 | 13.63886 | 38430 ft | 447 kts | 332° |
| 2026-04-29 18:34 | 56.47124 | 13.60189 | 38432 ft | 447 kts | 332° |
| 2026-04-29 18:34 | 56.53838 | 13.54965 | 38434 ft | 447 kts | 332° |
| 2026-04-29 18:35 | 56.59583 | 13.50479 | 38434 ft | 447 kts | 332° |
| 2026-04-29 18:35 | 56.65315 | 13.45989 | 38434 ft | 447 kts | 332° |
| 2026-04-29 18:36 | 56.71049 | 13.41482 | 38434 ft | 447 kts | 332° |
| 2026-04-29 18:36 | 56.76742 | 13.36992 | 38434 ft | 447 kts | 332° |
| 2026-04-29 18:37 | 56.82478 | 13.32453 | 38435 ft | 446 kts | 331° |
| 2026-04-29 18:37 | 56.88163 | 13.27940 | 38434 ft | 446 kts | 331° |
| 2026-04-29 18:38 | 56.93877 | 13.23389 | 38434 ft | 446 kts | 331° |
| 2026-04-29 18:38 | 56.99607 | 13.18808 | 38433 ft | 447 kts | 331° |
| 2026-04-29 18:39 | 57.05321 | 13.14221 | 38433 ft | 450 kts | 331° |
| 2026-04-29 18:39 | 57.11058 | 13.09603 | 38432 ft | 452 kts | 331° |
| 2026-04-29 18:40 | 57.16880 | 13.04905 | 38434 ft | 453 kts | 331° |
| 2026-04-29 18:40 | 57.22617 | 13.00261 | 38434 ft | 452 kts | 331° |
| 2026-04-29 18:41 | 57.34227 | 12.90807 | 38434 ft | 452 kts | 331° |
| 2026-04-29 18:42 | 57.40019 | 12.86065 | 38434 ft | 452 kts | 331° |
| 2026-04-29 18:42 | 57.45822 | 12.81298 | 38434 ft | 452 kts | 331° |
| 2026-04-29 18:43 | 57.51614 | 12.76523 | 38434 ft | 452 kts | 331° |
| 2026-04-29 18:43 | 57.57430 | 12.71712 | 38434 ft | 452 kts | 331° |
| 2026-04-29 18:44 | 57.63247 | 12.66882 | 38434 ft | 452 kts | 331° |
| 2026-04-29 18:44 | 57.69034 | 12.62062 | 38434 ft | 452 kts | 331° |
| 2026-04-29 18:45 | 57.74798 | 12.57243 | 38434 ft | 452 kts | 331° |
| 2026-04-29 18:45 | 57.80564 | 12.52406 | 38434 ft | 453 kts | 331° |
| 2026-04-29 18:46 | 57.86320 | 12.47560 | 38434 ft | 452 kts | 331° |
| 2026-04-29 18:46 | 57.92092 | 12.42684 | 38434 ft | 452 kts | 331° |
| 2026-04-29 18:47 | 57.97859 | 12.37794 | 38434 ft | 452 kts | 331° |
| 2026-04-29 18:47 | 58.03623 | 12.32889 | 38435 ft | 452 kts | 330° |
| 2026-04-29 18:48 | 58.09375 | 12.27978 | 38435 ft | 452 kts | 330° |
| 2026-04-29 18:48 | 58.15138 | 12.23040 | 38434 ft | 452 kts | 330° |
| 2026-04-29 18:49 | 58.20917 | 12.18070 | 38434 ft | 452 kts | 330° |
| 2026-04-29 18:49 | 58.26678 | 12.13097 | 38434 ft | 452 kts | 330° |
| 2026-04-29 18:50 | 58.32435 | 12.08111 | 38434 ft | 452 kts | 330° |
| 2026-04-29 18:50 | 58.38172 | 12.03124 | 38434 ft | 452 kts | 330° |
| 2026-04-29 18:51 | 58.43977 | 11.98059 | 38434 ft | 451 kts | 330° |
| 2026-04-29 18:51 | 58.49737 | 11.93015 | 38434 ft | 451 kts | 330° |
| 2026-04-29 18:52 | 58.52602 | 11.90500 | 38326 ft | 452 kts | 330° |
| 2026-04-29 18:52 | 58.55477 | 11.87973 | 38041 ft | 449 kts | 330° |
| 2026-04-29 18:52 | 58.58338 | 11.85454 | 37430 ft | 448 kts | 330° |
| 2026-04-29 18:52 | 58.61197 | 11.82928 | 36628 ft | 451 kts | 330° |
| 2026-04-29 18:53 | 58.64022 | 11.80426 | 35848 ft | 453 kts | 330° |
| 2026-04-29 18:53 | 58.66920 | 11.77857 | 35074 ft | 454 kts | 330° |
| 2026-04-29 18:53 | 58.69790 | 11.75310 | 34292 ft | 455 kts | 330° |
| 2026-04-29 18:53 | 58.72677 | 11.72742 | 33467 ft | 457 kts | 330° |
| 2026-04-29 18:54 | 58.75604 | 11.70131 | 32598 ft | 459 kts | 330° |
| 2026-04-29 18:54 | 58.78521 | 11.67526 | 31702 ft | 462 kts | 330° |
| 2026-04-29 18:54 | 58.81429 | 11.64924 | 30779 ft | 465 kts | 330° |
| 2026-04-29 18:54 | 58.84403 | 11.62259 | 29820 ft | 468 kts | 331° |
| 2026-04-29 18:55 | 58.87368 | 11.59597 | 28847 ft | 470 kts | 331° |
| 2026-04-29 18:55 | 58.90317 | 11.56947 | 28114 ft | 467 kts | 331° |
| 2026-04-29 18:55 | 58.93262 | 11.54302 | 27470 ft | 462 kts | 331° |
| 2026-04-29 18:55 | 58.96200 | 11.51655 | 26830 ft | 459 kts | 331° |
| 2026-04-29 18:56 | 58.99063 | 11.49067 | 26208 ft | 456 kts | 331° |
| 2026-04-29 18:56 | 59.01971 | 11.46431 | 25656 ft | 450 kts | 330° |
| 2026-04-29 18:56 | 59.04769 | 11.43893 | 25299 ft | 441 kts | 330° |
| 2026-04-29 18:56 | 59.07522 | 11.41392 | 25004 ft | 431 kts | 330° |
| 2026-04-29 18:57 | 59.10209 | 11.38945 | 24802 ft | 419 kts | 330° |
| 2026-04-29 18:57 | 59.12844 | 11.36542 | 24653 ft | 405 kts | 330° |
| 2026-04-29 18:57 | 59.15348 | 11.34260 | 24506 ft | 386 kts | 330° |
| 2026-04-29 18:57 | 59.17868 | 11.32700 | 24319 ft | 375 kts | 348° |
| 2026-04-29 18:58 | 59.20513 | 11.32762 | 23984 ft | 382 kts | 8° |
| 2026-04-29 18:58 | 59.23071 | 11.34140 | 23581 ft | 382 kts | 15° |
| 2026-04-29 18:58 | 59.25645 | 11.35859 | 23172 ft | 380 kts | 17° |
| 2026-04-29 18:58 | 59.28152 | 11.37559 | 22779 ft | 378 kts | 16° |
| 2026-04-29 18:59 | 59.30636 | 11.39202 | 22391 ft | 375 kts | 16° |
| 2026-04-29 18:59 | 59.33132 | 11.40813 | 22003 ft | 372 kts | 15° |
| 2026-04-29 18:59 | 59.35594 | 11.42381 | 21621 ft | 370 kts | 15° |
| 2026-04-29 18:59 | 59.38044 | 11.43933 | 21239 ft | 367 kts | 15° |
| 2026-04-29 19:00 | 59.40488 | 11.45482 | 20858 ft | 365 kts | 15° |
| 2026-04-29 19:00 | 59.42887 | 11.47002 | 20481 ft | 363 kts | 15° |
| 2026-04-29 19:00 | 59.45284 | 11.48515 | 20102 ft | 360 kts | 15° |
| 2026-04-29 19:00 | 59.47686 | 11.50029 | 19722 ft | 358 kts | 15° |
| 2026-04-29 19:01 | 59.50033 | 11.51510 | 19352 ft | 356 kts | 15° |
| 2026-04-29 19:01 | 59.52385 | 11.52998 | 18979 ft | 353 kts | 15° |
| 2026-04-29 19:01 | 59.54713 | 11.54472 | 18609 ft | 351 kts | 15° |
| 2026-04-29 19:01 | 59.57034 | 11.55945 | 18238 ft | 349 kts | 15° |
| 2026-04-29 19:02 | 59.59358 | 11.57421 | 17863 ft | 347 kts | 15° |
| 2026-04-29 19:02 | 59.60890 | 11.58396 | 17615 ft | 345 kts | 15° |
| 2026-04-29 19:02 | 59.63932 | 11.60334 | 17119 ft | 343 kts | 15° |
| 2026-04-29 19:02 | 59.66213 | 11.61789 | 16746 ft | 341 kts | 16° |
| 2026-04-29 19:03 | 59.68487 | 11.63243 | 16374 ft | 339 kts | 16° |
| 2026-04-29 19:03 | 59.70709 | 11.64665 | 16009 ft | 337 kts | 16° |
| 2026-04-29 19:03 | 59.72973 | 11.66115 | 15637 ft | 335 kts | 17° |
| 2026-04-29 19:03 | 59.75191 | 11.67538 | 15274 ft | 333 kts | 17° |
| 2026-04-29 19:04 | 59.77400 | 11.68958 | 14913 ft | 330 kts | 17° |
| 2026-04-29 19:04 | 59.79567 | 11.70353 | 14558 ft | 328 kts | 17° |
| 2026-04-29 19:04 | 59.81756 | 11.71764 | 14200 ft | 326 kts | 17° |
| 2026-04-29 19:04 | 59.83908 | 11.73152 | 13846 ft | 324 kts | 17° |
| 2026-04-29 19:05 | 59.86062 | 11.74544 | 13493 ft | 322 kts | 17° |
| 2026-04-29 19:05 | 59.88208 | 11.75933 | 13139 ft | 320 kts | 17° |
| 2026-04-29 19:05 | 59.90331 | 11.77309 | 12789 ft | 318 kts | 17° |
| 2026-04-29 19:05 | 59.92424 | 11.78668 | 12442 ft | 316 kts | 17° |
| 2026-04-29 19:06 | 59.94520 | 11.80031 | 12097 ft | 314 kts | 17° |
| 2026-04-29 19:06 | 59.96630 | 11.81407 | 11746 ft | 312 kts | 17° |
| 2026-04-29 19:06 | 60.00747 | 11.84100 | 11061 ft | 308 kts | 17° |
| 2026-04-29 19:07 | 60.02776 | 11.85429 | 10723 ft | 306 kts | 17° |
| 2026-04-29 19:07 | 60.04123 | 11.86313 | 10497 ft | 305 kts | 17° |
| 2026-04-29 19:07 | 60.06827 | 11.88090 | 10044 ft | 302 kts | 18° |
| 2026-04-29 19:07 | 60.08832 | 11.89408 | 9708 ft | 300 kts | 18° |
| 2026-04-29 19:08 | 60.10857 | 11.90611 | 9399 ft | 297 kts | 9° |
| 2026-04-29 19:08 | 60.12899 | 11.90446 | 9244 ft | 294 kts | 338° |
| 2026-04-29 19:08 | 60.14625 | 11.88263 | 9131 ft | 289 kts | 315° |
| 2026-04-29 19:08 | 60.16145 | 11.85474 | 9006 ft | 288 kts | 314° |
| 2026-04-29 19:09 | 60.17618 | 11.82752 | 8881 ft | 287 kts | 315° |
| 2026-04-29 19:09 | 60.19137 | 11.80018 | 8754 ft | 286 kts | 315° |
| 2026-04-29 19:09 | 60.20619 | 11.77410 | 8540 ft | 279 kts | 316° |
| 2026-04-29 19:09 | 60.22072 | 11.74887 | 8325 ft | 272 kts | 316° |
| 2026-04-29 19:10 | 60.23515 | 11.72397 | 8103 ft | 265 kts | 316° |
| 2026-04-29 19:10 | 60.24897 | 11.70021 | 7879 ft | 260 kts | 316° |
| 2026-04-29 19:10 | 60.26275 | 11.67650 | 7649 ft | 254 kts | 316° |
| 2026-04-29 19:10 | 60.27614 | 11.65348 | 7417 ft | 249 kts | 316° |
| 2026-04-29 19:11 | 60.28934 | 11.63077 | 7248 ft | 248 kts | 316° |
| 2026-04-29 19:11 | 60.30263 | 11.60785 | 7054 ft | 248 kts | 316° |
| 2026-04-29 19:11 | 60.31578 | 11.58517 | 6807 ft | 247 kts | 316° |
| 2026-04-29 19:11 | 60.32908 | 11.56222 | 6530 ft | 246 kts | 316° |
| 2026-04-29 19:12 | 60.34210 | 11.53973 | 6250 ft | 245 kts | 317° |
| 2026-04-29 19:12 | 60.35532 | 11.51686 | 5961 ft | 244 kts | 317° |
| 2026-04-29 19:12 | 60.36828 | 11.49442 | 5676 ft | 243 kts | 317° |
| 2026-04-29 19:12 | 60.37386 | 11.48476 | 5554 ft | 243 kts | 317° |